createdAt,value
2022-11-29T00:00:31.781Z,22.32
2022-11-29T00:03:02.720Z,22.33
2022-11-29T00:05:34.869Z,22.33
2022-11-29T00:08:05.724Z,22.32
2022-11-29T00:10:38.815Z,22.30
2022-11-29T00:13:09.451Z,22.27
2022-11-29T00:15:40.936Z,22.25
2022-11-29T00:18:11.780Z,22.24
2022-11-29T00:20:42.720Z,22.24
2022-11-29T00:23:13.447Z,22.27
2022-11-29T00:25:44.165Z,22.29
2022-11-29T00:28:14.910Z,22.31
2022-11-29T00:30:45.796Z,22.33
2022-11-29T00:33:16.522Z,22.32
2022-11-29T00:35:47.310Z,22.27
2022-11-29T00:38:18.172Z,22.20
2022-11-29T00:40:53.774Z,22.16
2022-11-29T00:43:24.572Z,22.10
2022-11-29T00:45:55.293Z,22.09
2022-11-29T00:48:26.564Z,22.05
2022-11-29T00:50:57.483Z,22.00
2022-11-29T00:53:28.216Z,21.93
2022-11-29T00:55:59.320Z,21.97
2022-11-29T00:58:30.178Z,21.96
2022-11-29T01:01:01.220Z,21.92
2022-11-29T01:03:32.058Z,21.87
2022-11-29T01:06:07.494Z,21.85
2022-11-29T01:08:38.488Z,21.90
2022-11-29T01:11:13.632Z,21.93
2022-11-29T01:13:44.525Z,21.93
2022-11-29T01:16:16.607Z,21.91
2022-11-29T01:18:47.813Z,21.89
2022-11-29T01:21:20.584Z,21.86
2022-11-29T01:23:52.882Z,21.88
2022-11-29T01:26:25.506Z,21.86
2022-11-29T01:28:57.854Z,21.85
2022-11-29T01:31:30.367Z,21.83
2022-11-29T01:34:03.748Z,21.80
2022-11-29T01:36:35.340Z,21.77
2022-11-29T01:39:07.308Z,21.75
2022-11-29T01:41:39.334Z,21.82
2022-11-29T01:44:46.853Z,21.85
2022-11-29T01:47:19.821Z,21.83
2022-11-29T01:49:51.529Z,21.79
2022-11-29T01:52:25.389Z,21.77
2022-11-29T01:55:01.804Z,21.76
2022-11-29T01:57:36.379Z,21.76
2022-11-29T02:00:12.201Z,21.70
2022-11-29T02:02:45.367Z,21.70
2022-11-29T02:05:19.750Z,21.66
2022-11-29T02:07:54.874Z,21.58
2022-11-29T02:10:33.837Z,21.52
2022-11-29T02:13:12.775Z,21.47
2022-11-29T02:15:50.768Z,21.49
2022-11-29T02:18:29.488Z,21.45
2022-11-29T02:21:27.431Z,21.45
2022-11-29T02:24:31.824Z,21.43
2022-11-29T02:27:32.978Z,21.41
2022-11-29T02:30:20.785Z,21.43
2022-11-29T02:33:22.488Z,21.41
2022-11-29T02:36:26.339Z,21.38
2022-11-29T02:39:26.841Z,21.37
2022-11-29T02:42:56.119Z,21.29
2022-11-29T02:45:45.767Z,21.26
2022-11-29T02:48:31.483Z,21.24
2022-11-29T02:51:10.991Z,21.25
2022-11-29T02:53:49.103Z,21.25
2022-11-29T02:56:26.352Z,21.23
2022-11-29T02:59:04.577Z,21.21
2022-11-29T03:01:45.994Z,21.20
2022-11-29T03:04:29.155Z,21.19
2022-11-29T03:07:11.139Z,21.16
2022-11-29T03:09:45.396Z,21.12
2022-11-29T03:12:27.257Z,21.10
2022-11-29T03:15:24.027Z,21.08
2022-11-29T03:18:05.184Z,21.05
2022-11-29T03:20:46.444Z,21.09
2022-11-29T03:23:26.849Z,21.12
2022-11-29T03:26:05.874Z,21.09
2022-11-29T03:28:44.512Z,21.08
2022-11-29T03:31:21.556Z,21.05
2022-11-29T03:34:01.911Z,21.05
2022-11-29T03:36:41.268Z,21.03
2022-11-29T03:39:18.654Z,21.01
2022-11-29T03:41:54.484Z,21.01
2022-11-29T03:44:28.979Z,20.99
2022-11-29T03:47:04.619Z,20.98
2022-11-29T03:49:42.104Z,20.99
2022-11-29T03:52:17.826Z,21.04
2022-11-29T03:55:04.630Z,21.06
2022-11-29T03:57:46.428Z,21.08
2022-11-29T04:00:19.617Z,21.06
2022-11-29T04:03:22.194Z,21.13
2022-11-29T04:06:20.929Z,21.21
2022-11-29T04:09:15.697Z,21.26
2022-11-29T04:12:17.586Z,21.27
2022-11-29T04:15:21.401Z,21.27
2022-11-29T04:18:33.848Z,21.23
2022-11-29T04:21:30.029Z,21.22
2022-11-29T04:24:29.038Z,21.14
2022-11-29T04:27:31.217Z,21.05
2022-11-29T04:30:20.114Z,20.95
2022-11-29T04:33:15.346Z,20.89
2022-11-29T04:35:56.992Z,20.82
2022-11-29T04:38:51.770Z,20.75
2022-11-29T04:41:35.376Z,20.70
2022-11-29T04:44:20.338Z,20.68
2022-11-29T04:47:06.272Z,20.66
2022-11-29T04:49:43.990Z,20.62
2022-11-29T04:52:50.797Z,20.60
2022-11-29T04:55:33.480Z,20.58
2022-11-29T04:58:14.439Z,20.55
2022-11-29T05:00:54.920Z,20.52
2022-11-29T05:03:36.930Z,20.62
2022-11-29T05:06:20.461Z,20.67
2022-11-29T05:09:01.360Z,20.67
2022-11-29T05:11:44.707Z,20.67
2022-11-29T05:14:25.536Z,20.68
2022-11-29T05:17:10.777Z,20.71
2022-11-29T05:19:56.244Z,20.74
2022-11-29T05:22:34.707Z,20.72
2022-11-29T05:25:22.453Z,20.69
2022-11-29T05:27:59.063Z,20.67
2022-11-29T05:30:41.671Z,20.66
2022-11-29T05:33:28.168Z,20.67
2022-11-29T05:36:15.168Z,20.66
2022-11-29T05:39:01.799Z,20.67
2022-11-29T05:41:50.905Z,20.65
2022-11-29T05:44:32.649Z,20.60
2022-11-29T05:47:05.723Z,20.56
2022-11-29T05:49:44.329Z,20.54
2022-11-29T05:52:26.286Z,20.50
2022-11-29T05:55:20.843Z,20.47
2022-11-29T05:57:58.203Z,20.46
2022-11-29T06:00:34.407Z,20.43
2022-11-29T06:03:15.429Z,20.39
2022-11-29T06:05:53.064Z,20.36
2022-11-29T06:08:37.544Z,20.35
2022-11-29T06:11:14.434Z,20.36
2022-11-29T06:13:58.762Z,20.33
2022-11-29T06:16:52.527Z,20.28
2022-11-29T06:19:59.706Z,20.23
2022-11-29T06:22:49.024Z,20.19
2022-11-29T06:25:42.786Z,20.16
2022-11-29T06:28:33.389Z,20.11
2022-11-29T06:31:14.164Z,20.10
2022-11-29T06:33:53.969Z,20.13
2022-11-29T06:36:32.240Z,20.08
2022-11-29T06:39:04.194Z,20.09
2022-11-29T06:41:36.221Z,20.09
2022-11-29T06:44:07.880Z,20.09
2022-11-29T06:46:48.274Z,20.06
2022-11-29T06:49:28.089Z,20.04
2022-11-29T06:52:11.031Z,20.00
2022-11-29T06:55:02.820Z,19.97
2022-11-29T06:57:48.487Z,19.99
2022-11-29T07:00:24.061Z,19.99
2022-11-29T07:03:08.369Z,19.97
2022-11-29T07:05:40.903Z,19.93
2022-11-29T07:08:16.203Z,19.90
2022-11-29T07:10:50.034Z,19.89
2022-11-29T07:13:20.127Z,19.87
2022-11-29T07:16:00.032Z,19.82
2022-11-29T07:18:35.280Z,19.81
2022-11-29T07:21:18.829Z,19.78
2022-11-29T07:24:02.718Z,19.79
2022-11-29T07:26:40.774Z,19.82
2022-11-29T07:29:25.134Z,19.89
2022-11-29T07:32:09.247Z,19.94
2022-11-29T07:34:47.660Z,20.03
2022-11-29T07:37:31.578Z,20.12
2022-11-29T07:40:14.536Z,20.22
2022-11-29T07:43:04.158Z,20.31
2022-11-29T07:45:36.920Z,20.40
2022-11-29T07:48:08.237Z,20.47
2022-11-29T07:50:39.951Z,20.54
2022-11-29T07:53:16.621Z,20.61
2022-11-29T07:55:48.093Z,20.68
2022-11-29T07:58:20.146Z,20.73
2022-11-29T08:00:51.158Z,20.78
2022-11-29T08:03:22.079Z,20.84
2022-11-29T08:05:52.802Z,20.89
2022-11-29T08:08:23.920Z,20.93
2022-11-29T08:10:54.755Z,20.97
2022-11-29T08:13:25.433Z,21.01
2022-11-29T08:15:56.458Z,21.05
2022-11-29T08:18:27.209Z,21.07
2022-11-29T08:20:58.071Z,21.09
2022-11-29T08:23:29.015Z,21.11
2022-11-29T08:26:03.743Z,21.11
2022-11-29T08:28:34.686Z,21.12
2022-11-29T08:31:08.431Z,21.13
2022-11-29T08:33:38.618Z,21.13
2022-11-29T08:36:11.827Z,21.10
2022-11-29T08:38:42.854Z,21.12
2022-11-29T08:41:16.487Z,21.11
2022-11-29T08:43:47.671Z,21.12
2022-11-29T08:46:19.137Z,21.11
2022-11-29T08:48:50.736Z,21.11
2022-11-29T08:51:21.560Z,21.11
2022-11-29T08:53:52.768Z,21.12
2022-11-29T08:57:10.132Z,21.12
2022-11-29T08:59:14.221Z,21.10
2022-11-29T09:01:45.327Z,21.10
2022-11-29T09:04:17.140Z,21.10
2022-11-29T09:06:49.738Z,21.09
2022-11-29T09:09:20.530Z,21.07
2022-11-29T09:11:51.193Z,21.05
2022-11-29T09:14:29.003Z,21.03
2022-11-29T09:16:59.780Z,20.94
2022-11-29T09:19:30.557Z,20.97
2022-11-29T09:22:01.322Z,20.98
2022-11-29T09:24:32.113Z,20.97
2022-11-29T09:27:03.209Z,20.95
2022-11-29T09:29:34.045Z,20.95
2022-11-29T09:32:05.046Z,20.98
2022-11-29T09:34:35.861Z,21.03
2022-11-29T09:37:07.459Z,21.08
2022-11-29T09:39:38.426Z,21.12
2022-11-29T09:42:23.938Z,21.15
2022-11-29T09:45:04.195Z,21.18
2022-11-29T09:47:58.811Z,21.20
2022-11-29T09:50:35.066Z,21.22
2022-11-29T09:53:31.663Z,21.24
2022-11-29T09:56:12.407Z,21.24
2022-11-29T09:58:48.294Z,21.27
2022-11-29T10:01:25.818Z,21.28
2022-11-29T10:04:01.840Z,21.25
2022-11-29T10:06:38.695Z,21.27
2022-11-29T10:09:18.561Z,21.26
2022-11-29T10:12:02.338Z,21.26
2022-11-29T10:14:40.312Z,21.25
2022-11-29T10:17:29.517Z,21.25
2022-11-29T10:20:05.554Z,21.23
2022-11-29T10:22:45.100Z,21.22
2022-11-29T10:25:24.412Z,21.19
2022-11-29T10:27:55.885Z,21.17
2022-11-29T10:30:27.034Z,21.16
2022-11-29T10:33:01.305Z,21.16
2022-11-29T10:35:32.218Z,21.17
2022-11-29T10:38:29.820Z,21.16
2022-11-29T10:41:00.297Z,21.13
2022-11-29T10:43:32.816Z,21.08
2022-11-29T10:46:04.717Z,21.07
2022-11-29T10:48:36.923Z,21.05
2022-11-29T10:51:17.307Z,21.09
2022-11-29T10:53:49.520Z,21.07
2022-11-29T10:56:24.276Z,21.05
2022-11-29T10:59:04.450Z,21.04
2022-11-29T11:01:38.595Z,21.05
2022-11-29T11:04:15.932Z,21.06
2022-11-29T11:06:49.580Z,21.04
2022-11-29T11:09:25.863Z,21.00
2022-11-29T11:11:59.123Z,20.92
2022-11-29T11:14:32.270Z,20.86
2022-11-29T11:17:22.425Z,20.80
2022-11-29T11:20:00.907Z,20.73
2022-11-29T11:22:33.769Z,20.70
2022-11-29T11:25:07.679Z,20.68
2022-11-29T11:27:40.489Z,20.63
2022-11-29T11:30:24.487Z,20.59
2022-11-29T11:33:09.673Z,20.55
2022-11-29T11:35:40.513Z,20.52
2022-11-29T11:38:18.612Z,20.48
2022-11-29T11:40:53.606Z,20.50
2022-11-29T11:43:27.403Z,20.51
2022-11-29T11:45:58.394Z,20.53
2022-11-29T11:48:29.776Z,20.51
2022-11-29T11:51:03.219Z,20.49
2022-11-29T11:53:36.815Z,20.49
2022-11-29T11:56:10.219Z,20.50
2022-11-29T11:58:48.567Z,20.51
2022-11-29T12:01:28.811Z,20.52
2022-11-29T12:04:06.926Z,20.50
2022-11-29T12:06:47.410Z,20.47
2022-11-29T12:09:25.978Z,20.44
2022-11-29T12:12:06.799Z,20.43
2022-11-29T12:14:44.813Z,20.41
2022-11-29T12:17:20.875Z,20.34
2022-11-29T12:20:04.548Z,20.36
2022-11-29T12:22:46.615Z,20.31
2022-11-29T12:25:23.808Z,20.27
2022-11-29T12:27:55.064Z,20.23
2022-11-29T12:30:26.219Z,20.20
2022-11-29T12:33:08.441Z,20.18
2022-11-29T12:35:52.335Z,20.15
2022-11-29T12:38:37.960Z,20.13
2022-11-29T12:41:22.676Z,20.05
2022-11-29T12:44:04.103Z,20.05
2022-11-29T12:46:35.858Z,20.04
2022-11-29T12:49:18.674Z,20.01
2022-11-29T12:51:57.630Z,20.03
2022-11-29T12:54:46.663Z,20.04
2022-11-29T12:57:25.388Z,20.03
2022-11-29T13:00:11.792Z,20.01
2022-11-29T13:02:57.846Z,20.02
2022-11-29T13:05:43.533Z,20.03
2022-11-29T13:08:39.235Z,20.07
2022-11-29T13:11:20.232Z,20.04
2022-11-29T13:14:13.530Z,20.03
2022-11-29T13:16:56.486Z,20.01
2022-11-29T13:19:36.797Z,19.98
2022-11-29T13:22:15.625Z,19.96
2022-11-29T13:24:51.949Z,19.93
2022-11-29T13:27:28.787Z,19.91
2022-11-29T13:30:01.249Z,19.90
2022-11-29T13:32:38.848Z,19.89
2022-11-29T13:35:18.540Z,19.86
2022-11-29T13:37:55.494Z,19.86
2022-11-29T13:40:37.238Z,19.88
2022-11-29T13:43:19.280Z,19.87
2022-11-29T13:45:55.339Z,19.88
2022-11-29T13:48:37.080Z,19.85
2022-11-29T13:51:32.968Z,19.85
2022-11-29T13:54:06.673Z,19.85
2022-11-29T13:56:46.662Z,19.83
2022-11-29T13:59:25.489Z,19.83
2022-11-29T14:01:58.540Z,19.81
2022-11-29T14:04:34.246Z,19.79
2022-11-29T14:07:08.252Z,19.81
2022-11-29T14:09:56.853Z,19.81
2022-11-29T14:12:37.790Z,19.78
2022-11-29T14:15:23.424Z,19.78
2022-11-29T14:17:59.187Z,19.75
2022-11-29T14:20:59.109Z,19.74
2022-11-29T14:23:41.468Z,19.75
2022-11-29T14:26:32.127Z,19.75
2022-11-29T14:29:23.184Z,19.74
2022-11-29T14:31:58.045Z,19.74
2022-11-29T14:34:46.124Z,19.73
2022-11-29T14:37:32.211Z,19.73
2022-11-29T14:40:12.575Z,19.72
2022-11-29T14:42:49.663Z,19.70
2022-11-29T14:45:30.440Z,19.70
2022-11-29T14:48:01.828Z,19.67
2022-11-29T14:50:38.533Z,19.65
2022-11-29T14:53:29.499Z,19.63
2022-11-29T14:56:31.007Z,19.57
2022-11-29T14:59:32.578Z,19.59
2022-11-29T15:02:07.553Z,19.59
2022-11-29T15:04:39.904Z,19.60
2022-11-29T15:07:19.996Z,19.60
2022-11-29T15:09:54.611Z,19.55
2022-11-29T15:12:30.011Z,19.58
2022-11-29T15:15:11.371Z,19.61
2022-11-29T15:17:53.356Z,19.62
2022-11-29T15:20:46.125Z,19.63
2022-11-29T15:23:19.033Z,19.61
2022-11-29T15:25:54.974Z,19.60
2022-11-29T15:28:28.961Z,19.57
2022-11-29T15:31:07.184Z,19.60
2022-11-29T15:33:41.612Z,19.59
2022-11-29T15:36:17.395Z,19.59
2022-11-29T15:38:50.147Z,19.61
2022-11-29T15:41:28.521Z,19.61
2022-11-29T15:44:02.241Z,19.59
2022-11-29T15:46:34.741Z,19.58
2022-11-29T15:49:23.589Z,19.57
2022-11-29T15:51:58.264Z,19.64
2022-11-29T15:54:33.561Z,19.66
2022-11-29T15:57:10.339Z,19.70
2022-11-29T15:59:46.851Z,19.82
2022-11-29T16:02:22.599Z,19.97
2022-11-29T16:04:55.960Z,20.09
2022-11-29T16:07:32.451Z,20.19
2022-11-29T16:10:13.010Z,20.28
2022-11-29T16:12:55.907Z,20.41
2022-11-29T16:15:35.155Z,20.50
2022-11-29T16:18:13.135Z,20.59
2022-11-29T16:21:00.073Z,20.69
2022-11-29T16:23:37.737Z,20.79
2022-11-29T16:26:16.194Z,20.86
2022-11-29T16:28:49.712Z,20.95
2022-11-29T16:31:23.277Z,21.02
2022-11-29T16:33:54.716Z,21.07
2022-11-29T16:36:28.047Z,21.14
2022-11-29T16:39:06.439Z,21.22
2022-11-29T16:41:39.105Z,21.27
2022-11-29T16:44:47.117Z,21.37
2022-11-29T16:47:22.233Z,21.44
2022-11-29T16:50:14.696Z,21.45
2022-11-29T16:52:45.767Z,21.54
2022-11-29T16:55:17.394Z,21.58
2022-11-29T16:57:49.046Z,21.63
2022-11-29T17:00:30.209Z,21.69
2022-11-29T17:03:01.557Z,21.72
2022-11-29T17:05:33.190Z,21.79
2022-11-29T17:08:04.637Z,21.80
2022-11-29T17:10:35.608Z,21.79
2022-11-29T17:13:10.046Z,21.77
2022-11-29T17:15:40.983Z,21.73
2022-11-29T17:18:12.165Z,21.68
2022-11-29T17:20:43.273Z,21.61
2022-11-29T17:23:14.284Z,21.53
2022-11-29T17:25:45.261Z,21.52
2022-11-29T17:28:16.405Z,21.48
2022-11-29T17:30:47.455Z,21.46
2022-11-29T17:33:21.709Z,21.44
2022-11-29T17:35:52.606Z,21.41
2022-11-29T17:38:23.456Z,21.40
2022-11-29T17:40:54.302Z,21.39
2022-11-29T17:43:25.564Z,21.38
2022-11-29T17:45:59.761Z,21.37
2022-11-29T17:48:33.645Z,21.36
2022-11-29T17:51:17.215Z,21.36
2022-11-29T17:53:56.096Z,21.35
2022-11-29T17:56:29.292Z,21.37
2022-11-29T17:59:03.691Z,21.41
2022-11-29T18:01:36.961Z,21.49
2022-11-29T18:04:09.510Z,21.58
2022-11-29T18:06:43.645Z,21.66
2022-11-29T18:09:15.265Z,21.72
2022-11-29T18:11:49.403Z,21.76
2022-11-29T18:14:24.033Z,21.77
2022-11-29T18:16:55.972Z,21.78
2022-11-29T18:19:26.897Z,21.76
2022-11-29T18:21:58.387Z,21.77
2022-11-29T18:24:29.624Z,21.77
2022-11-29T18:27:00.845Z,21.78
2022-11-29T18:29:38.214Z,21.78
2022-11-29T18:32:10.150Z,21.78
2022-11-29T18:34:41.190Z,21.77
2022-11-29T18:37:17.972Z,21.77
2022-11-29T18:39:51.568Z,21.76
2022-11-29T18:42:22.712Z,21.75
2022-11-29T18:44:58.613Z,21.74
2022-11-29T18:47:33.002Z,21.71
2022-11-29T18:50:04.802Z,21.77
2022-11-29T18:52:40.583Z,21.77
2022-11-29T18:55:12.215Z,21.79
2022-11-29T18:57:43.017Z,21.78
2022-11-29T19:00:16.637Z,21.80
2022-11-29T19:02:48.206Z,21.81
2022-11-29T19:05:19.265Z,21.82
2022-11-29T19:07:50.799Z,21.82
2022-11-29T19:10:21.817Z,21.81
2022-11-29T19:12:52.955Z,21.82
2022-11-29T19:15:24.209Z,21.80
2022-11-29T19:17:55.815Z,21.76
2022-11-29T19:20:26.909Z,21.74
2022-11-29T19:23:00.633Z,21.72
2022-11-29T19:25:35.037Z,21.72
2022-11-29T19:28:12.566Z,21.71
2022-11-29T19:30:45.106Z,21.71
2022-11-29T19:33:17.689Z,21.72
2022-11-29T19:35:48.830Z,21.69
2022-11-29T19:38:19.663Z,21.66
2022-11-29T19:40:50.525Z,21.66
2022-11-29T19:43:21.359Z,21.71
2022-11-29T19:45:52.343Z,21.77
2022-11-29T19:48:23.183Z,21.82
2022-11-29T19:50:54.220Z,21.87
2022-11-29T19:53:25.226Z,21.91
2022-11-29T19:55:56.221Z,21.96
2022-11-29T19:58:27.116Z,22.01
2022-11-29T20:01:04.457Z,22.05
2022-11-29T20:03:36.429Z,22.08
2022-11-29T20:06:08.232Z,22.10
2022-11-29T20:08:39.793Z,22.12
2022-11-29T20:11:12.543Z,22.13
2022-11-29T20:13:45.230Z,22.14
2022-11-29T20:16:18.481Z,22.16
2022-11-29T20:18:51.822Z,22.17
2022-11-29T20:21:24.787Z,22.18
2022-11-29T20:23:59.577Z,22.19
2022-11-29T20:26:31.554Z,22.18
2022-11-29T20:29:03.015Z,22.17
2022-11-29T20:31:35.536Z,22.17
2022-11-29T20:34:08.294Z,22.16
2022-11-29T20:36:50.652Z,22.15
2022-11-29T20:39:31.685Z,22.13
2022-11-29T20:42:24.279Z,22.12
2022-11-29T20:44:57.236Z,22.11
2022-11-29T20:47:32.894Z,22.11
2022-11-29T20:50:04.411Z,22.07
2022-11-29T20:52:44.919Z,22.10
2022-11-29T20:55:15.960Z,22.09
2022-11-29T20:57:47.516Z,22.08
2022-11-29T21:00:21.306Z,22.05
2022-11-29T21:02:52.473Z,22.03
2022-11-29T21:05:23.338Z,22.01
2022-11-29T21:07:54.378Z,22.00
2022-11-29T21:10:25.637Z,21.96
2022-11-29T21:12:57.271Z,21.94
2022-11-29T21:15:29.591Z,21.90
2022-11-29T21:18:01.466Z,21.87
2022-11-29T21:20:33.327Z,21.86
2022-11-29T21:23:11.063Z,21.85
2022-11-29T21:25:48.573Z,21.83
2022-11-29T21:28:20.773Z,21.80
2022-11-29T21:30:52.395Z,21.77
2022-11-29T21:33:24.510Z,21.72
2022-11-29T21:35:59.039Z,21.66
2022-11-29T21:38:30.246Z,21.64
2022-11-29T21:41:00.947Z,21.60
2022-11-29T21:44:04.264Z,21.55
2022-11-29T21:46:23.567Z,21.52
2022-11-29T21:48:54.566Z,21.49
2022-11-29T21:51:25.271Z,21.44
2022-11-29T21:53:56.042Z,21.40
2022-11-29T21:56:26.859Z,21.37
2022-11-29T21:58:57.553Z,21.34
2022-11-29T22:01:28.895Z,21.27
2022-11-29T22:03:59.712Z,21.23
2022-11-29T22:06:30.446Z,21.20
2022-11-29T22:09:01.374Z,21.15
2022-11-29T22:11:32.099Z,21.11
2022-11-29T22:14:18.590Z,21.07
2022-11-29T22:16:51.939Z,21.05
2022-11-29T22:19:24.436Z,21.03
2022-11-29T22:21:57.394Z,21.03
2022-11-29T22:24:30.454Z,20.97
2022-11-29T22:27:01.711Z,21.02
2022-11-29T22:29:32.677Z,21.02
2022-11-29T22:32:03.436Z,21.01
2022-11-29T22:34:34.110Z,20.99
2022-11-29T22:37:04.891Z,20.94
2022-11-29T22:39:35.729Z,20.91
2022-11-29T22:42:06.762Z,20.89
2022-11-29T22:44:37.379Z,20.88
2022-11-29T22:47:08.177Z,20.89
2022-11-29T22:49:38.938Z,20.93
2022-11-29T22:52:09.660Z,20.93
2022-11-29T22:54:40.467Z,20.93
2022-11-29T22:57:11.196Z,20.91
2022-11-29T22:59:41.835Z,20.88
2022-11-29T23:02:13.128Z,20.84
2022-11-29T23:04:43.938Z,20.82
2022-11-29T23:07:15.068Z,20.81
2022-11-29T23:09:45.910Z,20.78
2022-11-29T23:12:16.544Z,20.72
2022-11-29T23:14:51.554Z,20.71
2022-11-29T23:17:25.286Z,20.69
2022-11-29T23:19:56.005Z,20.67
2022-11-29T23:22:26.648Z,20.67
2022-11-29T23:24:57.291Z,20.64
2022-11-29T23:27:27.948Z,20.60
2022-11-29T23:30:01.202Z,20.55
2022-11-29T23:32:32.513Z,20.53
2022-11-29T23:35:03.214Z,20.53
2022-11-29T23:37:34.043Z,20.55
2022-11-29T23:40:05.202Z,20.64
2022-11-29T23:42:35.839Z,20.68
2022-11-29T23:45:07.815Z,20.73
2022-11-29T23:47:38.432Z,20.73
2022-11-29T23:50:11.707Z,20.75
2022-11-29T23:52:42.335Z,20.73
2022-11-29T23:55:16.565Z,20.72
2022-11-29T23:57:47.221Z,20.72
